Latest Weather Observations for Laverton

IDV60901

Issued at 10:55 pm EDT Tuesday 21 October 2014 (issued every 10 minutes, with the page automatically refreshed every 10 minutes)

About weather observations | Map of Melbourne area stations | Latest observations for Melbourne area | Other Formats
Station Details ID: 087031 Name: LAVERTON RAAF Lat: -37.86 Lon: 144.76 Height: 20.1 m
Data from the previous 72 hours. | See also: Recent months at Laverton
Date/Time
EDT
Tmp

°C
App
Tmp
°C
Dew
Point
°C
Rel
Hum
%
Delta-T

°C
Wind Press
QNH
hPa
Press
MSL
hPa
Rain
since
9 am
mm
Dir
 
Spd
km/h
Gust
km/h
Spd
kts
Gust
kts
21/10:30pm 16.4 15.6 11.6 73 2.6 NNW 7 9 4 5 1022.6 1022.6 0.0
21/10:00pm 17.7 16.6 11.9 69 3.2 E 9 11 5 6 1022.7 1022.7 0.0
21/09:30pm 18.3 17.5 11.8 66 3.6 ESE 7 11 4 6 1022.6 1022.6 0.0
21/09:00pm 18.7 17.7 12.2 66 3.6 E 9 13 5 7 1022.3 1022.3 0.0
21/08:30pm 18.9 17.9 12.2 65 3.7 E 9 13 5 7 1022.2 1022.2 0.0
21/08:00pm 19.6 17.8 12.1 62 4.2 E 13 17 7 9 1022.2 1022.2 0.0
21/07:30pm 20.7 18.1 11.9 57 4.9 E 17 24 9 13 1022.0 1022.0 0.0
21/07:00pm 21.7 18.6 11.7 53 5.6 ESE 19 30 10 16 1021.9 1021.9 0.0
21/06:30pm 22.8 19.2 11.8 50 6.2 ESE 22 32 12 17 1021.8 1021.8 0.0
21/06:00pm 23.3 19.0 12.0 49 6.4 ESE 26 33 14 18 1021.8 1021.8 0.0
21/05:30pm 23.9 19.9 11.9 47 6.8 ESE 24 35 13 19 1021.9 1021.9 0.0
21/05:00pm 24.4 20.6 12.4 47 6.9 ESE 24 37 13 20 1022.0 1022.0 0.0
21/04:30pm 24.7 20.9 12.3 46 7.1 ESE 24 35 13 19 1022.3 1022.3 0.0
21/04:00pm 24.4 20.4 11.7 45 7.2 ESE 24 32 13 17 1022.4 1022.4 0.0
21/03:30pm 24.3 19.8 11.3 44 7.3 ESE 26 33 14 18 1022.9 1022.9 0.0
21/03:00pm 24.6 21.2 11.2 43 7.5 SE 20 32 11 17 1023.4 1023.4 0.0
21/02:30pm 27.1 24.3 9.9 34 9.6 ENE 15 20 8 11 1023.7 1023.7 0.0
21/02:00pm 26.7 23.0 10.0 35 9.3 NE 20 32 11 17 1024.2 1024.2 0.0
21/01:30pm 26.1 22.3 9.9 36 8.9 NNE 20 28 11 15 1024.7 1024.7 0.0
21/01:00pm 24.9 20.8 10.0 39 8.2 NNE 22 37 12 20 1024.9 1024.9 0.0
21/12:30pm 24.8 20.9 9.5 38 8.4 NNE 20 35 11 19 1025.3 1025.3 0.0
21/12:00pm 23.8 18.9 9.8 41 7.6 NNE 26 37 14 20 1025.8 1025.8 0.0
21/11:30am 23.2 17.7 9.2 41 7.5 NNE 28 39 15 21 1026.0 1026.0 0.0
21/11:00am 21.2 17.7 10.1 49 6.0 ENE 19 28 10 15 1026.4 1026.4 0.0
21/10:30am 19.0 15.6 9.2 53 5.2 ENE 17 28 9 15 1026.8 1026.8 0.0
21/10:00am 17.3 13.9 9.2 59 4.2 ENE 17 22 9 12 1027.1 1027.1 0.0
21/09:30am 15.6 13.2 8.6 63 3.6 E 11 15 6 8 1027.3 1027.3 0.0
21/09:00am 13.5 10.6 8.1 70 2.7 E 13 17 7 9 1027.4 1027.4 0.0
21/08:30am 11.8 9.7 8.1 78 1.8 E 9 11 5 6 1027.5 1027.5 0.0
21/08:00am 10.1 8.5 8.2 88 0.9 NE 6 9 3 5 1027.2 1027.2 0.0
21/07:30am 8.1 6.3 7.2 94 0.4 NE 6 7 3 4 1026.9 1026.9 0.0
21/07:00am 6.2 3.9 5.5 95 0.3 N 7 9 4 5 1026.8 1026.8 0.0
21/06:30am 5.2 2.3 4.5 95 0.3 NNE 9 11 5 6 1026.6 1026.6 0.0
21/06:00am 4.6 2.8 3.7 94 0.4 NNW 2 9 1 5 1026.3 1026.3 0.0
21/05:30am 4.4 1.9 3.5 94 0.4 NNW 6 7 3 4 1026.0 1026.0 0.0
21/05:00am 4.6 1.5 3.7 94 0.4 NNW 9 13 5 7 1026.1 1026.1 0.0
21/04:30am 5.1 1.7 4.1 93 0.4 N 11 13 6 7 1026.2 1026.2 0.0
21/04:00am 4.8 1.3 3.6 92 0.5 NW 11 13 6 7 1026.1 1026.1 0.0
21/03:30am 5.2 1.8 3.9 91 0.5 NNW 11 13 6 7 1026.3 1026.3 0.0
21/03:00am 5.6 2.2 4.1 90 0.6 NW 11 13 6 7 1026.5 1026.5 0.0
21/02:30am 6.2 2.8 4.2 87 0.9 NNW 11 13 6 7 1026.6 1026.6 0.0
21/02:00am 8.8 6.5 5.7 81 1.4 E 7 9 4 5 1026.6 1026.6 0.0
21/01:30am 10.0 7.9 6.7 80 1.5 E 7 9 4 5 1026.9 1026.9 0.0
21/01:00am 10.3 7.9 6.8 79 1.6 ESE 9 11 5 6 1027.1 1027.1 0.0
21/12:30am 11.0 8.6 7.1 77 1.9 ESE 9 13 5 7 1027.3 1027.3 0.0
21/12:00am 11.4 7.9 7.1 75 2.0 ESE 15 20 8 11 1027.4 1027.4 0.0
 
Date/Time
EDT
Tmp

°C
App
Tmp
°C
Dew
Point
°C
Rel
Hum
%
Delta-T

°C
Wind Press
QNH
hPa
Press
MSL
hPa
Rain
since
9 am
mm
Dir
 
Spd
km/h
Gust
km/h
Spd
kts
Gust
kts
20/11:30pm 11.9 7.6 7.2 73 2.3 SE 19 26 10 14 1027.7 1027.7 0.0
20/11:00pm 12.1 7.7 7.2 72 2.3 SE 20 30 11 16 1027.8 1027.8 0.0
20/10:30pm 12.5 7.7 7.4 71 2.5 SE 22 35 12 19 1028.0 1028.0 0.0
20/10:00pm 13.0 7.1 7.7 70 2.6 SE 28 43 15 23 1028.1 1028.1 0.0
20/09:30pm 13.3 7.8 7.5 68 2.8 SE 26 41 14 22 1028.1 1028.1 0.0
20/09:00pm 14.0 8.1 7.5 65 3.2 SE 28 43 15 23 1028.1 1028.1 0.0
20/08:30pm 14.5 9.1 7.8 64 3.3 SE 26 37 14 20 1027.7 1027.7 0.0
20/08:00pm 15.2 9.8 8.0 62 3.6 ESE 26 43 14 23 1027.4 1027.4 0.0
20/07:30pm 15.6 11.8 9.7 68 3.1 S 20 35 11 19 1027.4 1027.4 0.0
20/07:00pm 15.9 11.8 10.0 68 3.1 S 22 33 12 18 1027.2 1027.2 0.0
20/06:30pm 16.7 12.3 10.3 66 3.4 S 24 33 13 18 1027.2 1027.2 0.0
20/06:00pm 17.3 13.2 10.2 63 3.7 S 22 35 12 19 1027.3 1027.3 0.0
20/05:30pm 17.9 13.0 10.0 60 4.2 S 26 33 14 18 1027.4 1027.4 0.0
20/05:00pm 17.6 11.7 9.2 58 4.4 S 30 37 16 20 1027.4 1027.4 0.0
20/04:30pm 18.4 13.2 8.7 53 5.0 S 26 37 14 20 1027.6 1027.6 0.0
20/04:00pm 18.0 12.0 7.1 49 5.4 S 28 39 15 21 1027.7 1027.7 0.0
20/03:30pm 17.7 12.5 7.4 51 5.2 S 24 35 13 19 1028.0 1028.0 0.0
20/03:00pm 18.2 12.7 5.8 44 6.0 S 24 33 13 18 1028.2 1028.2 0.0
20/02:30pm 17.3 11.7 5.3 45 5.8 SSE 24 37 13 20 1028.6 1028.6 0.0
20/02:00pm 17.4 11.3 5.0 44 5.9 S 26 37 14 20 1029.0 1029.0 0.0
20/01:30pm 17.1 10.9 4.4 43 6.0 S 26 35 14 19 1029.3 1029.3 0.0
20/01:00pm 16.2 10.3 3.9 44 5.7 SE 24 33 13 18 1029.4 1029.4 0.0
20/12:30pm 16.1 10.3 4.2 45 5.5 SSE 24 33 13 18 1029.8 1029.8 0.0
20/12:00pm 15.6 9.3 3.7 45 5.4 SSE 26 35 14 19 1030.3 1030.3 0.0
20/11:30am 14.6 8.1 2.8 45 5.3 SE 26 39 14 21 1030.5 1030.5 0.0
20/11:00am 14.4 7.8 2.3 44 5.3 SE 26 35 14 19 1030.7 1030.7 0.0
20/10:30am 14.6 7.5 1.5 41 5.7 SE 28 39 15 21 1030.7 1030.7 0.0
20/10:00am 13.7 6.8 2.3 46 5.0 SE 28 39 15 21 1030.9 1030.9 0.0
20/09:30am 13.1 7.0 2.9 50 4.5 ESE 24 37 13 20 1031.0 1031.0 0.0
20/09:00am 12.5 5.7 2.9 52 4.2 SE 28 39 15 21 1030.9 1030.9 0.0
20/08:30am 12.3 6.3 3.5 55 3.9 ESE 24 35 13 19 1030.5 1030.5 0.0
20/08:00am 11.7 5.6 3.0 55 3.8 SE 24 33 13 18 1030.7 1030.7 0.0
20/07:30am 11.4 5.6 2.2 53 3.9 SE 22 30 12 16 1030.4 1030.4 0.0
20/07:00am 11.1 5.4 2.7 56 3.6 SE 22 33 12 18 1030.1 1030.1 0.0
20/06:30am 11.2 6.1 4.0 61 3.2 SE 20 28 11 15 1029.9 1029.9 0.0
20/06:00am 11.0 5.7 4.9 66 2.7 ESE 22 37 12 20 1029.4 1029.4 0.0
20/05:30am 11.6 5.9 5.0 64 3.0 SE 24 41 13 22 1029.3 1029.3 0.0
20/05:00am 11.7 6.6 6.0 68 2.6 ESE 22 37 12 20 1029.1 1029.1 0.0
20/04:30am 11.7 5.8 5.6 66 2.8 SE 26 39 14 21 1029.0 1029.0 0.0
20/04:00am 11.7 5.9 6.4 70 2.5 SE 26 39 14 21 1028.9 1028.9 0.0
20/03:30am 12.1 6.9 7.4 73 2.3 SE 24 35 13 19 1029.0 1029.0 0.0
20/03:00am 12.3 7.3 8.0 75 2.1 SE 24 39 13 21 1028.9 1028.9 0.0
20/02:30am 12.6 8.4 8.1 74 2.2 SSE 20 33 11 18 1029.1 1029.1 0.0
20/02:00am 12.8 8.2 8.1 73 2.3 SSE 22 33 12 18 1029.1 1029.1 0.0
20/01:30am 12.7 9.1 8.2 74 2.2 SSE 17 30 9 16 1029.3 1029.3 0.0
20/01:00am 12.8 8.5 7.7 71 2.5 SSE 20 30 11 16 1029.2 1029.2 0.0
20/12:30am 12.7 7.3 7.8 72 2.4 SSE 26 33 14 18 1029.4 1029.4 0.0
20/12:00am 12.5 7.3 9.0 79 1.7 SSE 26 39 14 21 1029.1 1029.1 0.0
 
Date/Time
EDT
Tmp

°C
App
Tmp
°C
Dew
Point
°C
Rel
Hum
%
Delta-T

°C
Wind Press
QNH
hPa
Press
MSL
hPa
Rain
since
9 am
mm
Dir
 
Spd
km/h
Gust
km/h
Spd
kts
Gust
kts
19/11:47pm 12.7 8.0 9.2 79 1.8 SSE 24 37 13 20 1029.2 1029.2 0.0
19/11:30pm 12.7 8.4 9.5 81 1.6 SSE 22 32 12 17 1029.1 1029.1 0.0
19/11:00pm 13.1 8.6 10.1 82 1.5 SSE 24 35 13 19 1028.7 1028.7 0.0
19/10:56pm 13.2 9.1 10.2 82 1.6 SSE 22 32 12 17 1028.6 1028.6 0.0
19/10:30pm 13.7 9.7 10.5 81 1.7 S 22 32 12 17 1028.5 1028.5 0.0
19/10:00pm 14.3 10.3 10.3 77 2.1 S 22 32 12 17 1028.0 1028.0 0.0
19/09:30pm 14.4 11.1 11.0 80 1.8 S 19 24 10 13 1028.0 1028.0 0.0
19/09:00pm 14.5 10.6 10.7 78 2.0 S 22 32 12 17 1027.5 1027.5 0.0
19/08:30pm 14.6 11.7 11.0 79 1.9 S 17 24 9 13 1026.4 1026.4 0.0
19/08:00pm 14.7 11.3 10.7 77 2.1 S 19 24 10 13 1025.7 1025.7 0.0
19/07:30pm 15.0 11.5 11.0 77 2.1 S 20 32 11 17 1025.1 1025.1 0.0
19/07:00pm 15.0 11.7 11.0 77 2.1 S 19 28 10 15 1024.5 1024.5 0.0
19/06:30pm 15.5 11.3 11.1 75 2.4 S 24 32 13 17 1024.1 1024.1 0.0
19/06:00pm 15.8 10.0 10.8 72 2.6 SSW 32 43 17 23 1023.3 1023.3 0.0
19/05:30pm 15.8 10.6 11.6 76 2.3 SSW 30 39 16 21 1022.3 1022.3 0.0
19/05:00pm 15.6 10.0 12.0 79 2.0 S 33 44 18 24 1021.6 1021.6 0.0
19/04:30pm 16.2 11.5 12.0 76 2.3 S 28 39 15 21 1020.3 1020.3 0.0
19/04:00pm 17.0 12.0 12.1 73 2.7 S 30 43 16 23 1020.0 1020.0 0.0
19/03:30pm 19.8 15.7 12.6 63 4.0 S 26 35 14 19 1019.6 1019.6 0.0
19/03:07pm 22.7 18.0 12.0 50 6.0 S 28 35 15 19 1019.4 1019.4 0.0
19/03:00pm 28.5 23.0 6.0 24 11.8 N 24 39 13 21 1018.6 1018.6 0.0
19/02:30pm 29.1 23.1 5.2 22 12.4 N 26 41 14 22 1018.5 1018.5 0.0
19/02:00pm 28.4 21.9 4.6 22 12.2 N 28 41 15 22 1018.8 1018.8 0.0
19/01:30pm 28.0 21.2 5.0 23 11.8 N 30 43 16 23 1019.0 1019.0 0.0
19/01:00pm 26.5 20.0 4.9 25 11.0 N 28 43 15 23 1019.0 1019.0 0.0
19/12:42pm 26.7 20.4 5.6 26 10.9 N 28 46 15 25 1019.2 1019.2 0.0
19/12:30pm 26.2 20.7 5.7 27 10.6 N 24 39 13 21 1019.5 1019.5 0.0
19/12:00pm 24.6 17.9 5.4 29 9.7 N 30 41 16 22 1019.7 1019.7 0.0
19/11:30am 24.7 18.3 5.0 28 9.9 N 28 37 15 20 1020.1 1020.1 0.0
19/11:10am 24.9 18.4 4.6 27 10.2 N 28 46 15 25 1020.2 1020.2 0.0
19/11:00am 24.1 18.3 6.4 32 9.1 N 26 37 14 20 1020.3 1020.3 0.0
19/10:30am 23.3 17.1 6.1 33 8.8 N 28 43 15 23 1020.7 1020.7 0.0
19/10:00am 22.1 15.7 5.1 33 8.4 N 28 46 15 25 1020.5 1020.5 0.0
19/09:47am 21.8 14.9 4.8 33 8.4 N 30 48 16 26 1020.4 1020.4 0.0
19/09:30am 21.6 15.1 4.7 33 8.3 N 28 41 15 22 1020.6 1020.6 0.0
19/09:00am 21.0 14.9 5.0 35 7.8 N 26 39 14 21 1020.9 1020.9 0.0
19/08:30am 20.8 14.4 5.2 36 7.7 N 28 43 15 23 1021.1 1021.1 0.0
19/08:00am 20.5 14.4 4.9 36 7.6 N 26 43 14 23 1020.8 1020.8 0.0
19/07:30am 19.8 14.1 5.1 38 7.2 N 24 39 13 21 1020.5 1020.5 0.0
19/07:14am 19.5 13.2 5.6 40 6.8 N 28 46 15 25 1020.3 1020.3 0.0
19/07:00am 19.4 12.7 5.5 40 6.8 N 30 44 16 24 1019.9 1019.9 0.0
19/06:30am 19.5 12.8 5.6 40 6.8 N 30 50 16 27 1019.6 1019.6 0.0
19/06:01am 19.5 13.2 5.6 40 6.8 N 28 48 15 26 1019.4 1019.4 0.0
19/06:00am 19.5 13.6 5.9 41 6.7 N 26 41 14 22 1019.5 1019.5 0.0
19/05:30am 19.8 13.5 5.8 40 6.9 N 28 46 15 25 1019.5 1019.5 0.0
19/05:00am 20.3 13.7 5.9 39 7.1 N 30 48 16 26 1019.3 1019.3 0.0
19/04:34am 20.5 13.8 5.7 38 7.3 N 30 48 16 26 1019.3 1019.3 0.0
19/04:30am 20.4 13.7 5.6 38 7.3 N 30 41 16 22 1019.3 1019.3 0.0
19/04:00am 21.0 14.5 4.6 34 8.0 N 28 43 15 23 1019.6 1019.6 0.0
19/03:30am 21.0 16.0 4.6 34 8.0 N 20 33 11 18 1019.7 1019.7 0.0
19/03:00am 20.6 15.6 4.6 35 7.8 N 20 28 11 15 1019.9 1019.9 0.0
19/02:30am 20.7 15.0 4.7 35 7.8 N 24 39 13 21 1020.1 1020.1 0.0
19/02:06am 20.8 14.3 4.8 35 7.8 N 28 46 15 25 1020.2 1020.2 0.0
19/02:00am 20.8 14.3 4.8 35 7.8 N 28 44 15 24 1020.2 1020.2 0.0
19/01:30am 20.7 14.2 4.7 35 7.8 N 28 46 15 25 1020.5 1020.5 0.0
19/01:29am 20.8 14.3 4.8 35 7.8 N 28 46 15 25 1020.4 1020.4 0.0
19/01:00am 20.6 14.5 4.6 35 7.8 N 26 39 14 21 1020.7 1020.7 0.0
19/12:30am 20.1 14.8 5.0 37 7.4 NNE 22 33 12 18 1020.8 1020.8 0.0
19/12:00am 19.8 14.9 5.1 38 7.2 NNE 20 32 11 17 1021.0 1021.0 0.0
 
Date/Time
EDT
Tmp

°C
App
Tmp
°C
Dew
Point
°C
Rel
Hum
%
Delta-T

°C
Wind Press
QNH
hPa
Press
MSL
hPa
Rain
since
9 am
mm
Dir
 
Spd
km/h
Gust
km/h
Spd
kts
Gust
kts
18/11:30pm 19.4 14.6 5.5 40 6.8 N 20 32 11 17 1021.3 1021.3 0.0
18/11:00pm 19.3 14.1 5.7 41 6.7 NNE 22 30 12 16 1021.6 1021.6 0.0

Latest Capital City Observations: Canberra | Sydney | Melbourne | Brisbane | Adelaide | Perth | Hobart | Darwin

Other Formats:

Comma delimited format used in spreadsheet applications
http://www.bom.gov.au/fwo/IDV60901/IDV60901.94865.axf

JavaScript Object Notation format (JSON) in row-major order
http://www.bom.gov.au/fwo/IDV60901/IDV60901.94865.json